SWA2613 KPHX-KLAS
Flight info
| Callsign | SWA2613 |
|---|---|
| Flight time | 0h 43m |
| Altitude | 28000 |
| Route | ZEPER2 RRSTA ELLDA RKSTR4 |
| Aircraft | B738/M-SDE2E3FGHIRWXY/LB1 |
Departure
| Time | 2026-05-07 19:52 |
|---|---|
| Airport | Phoenix Sky Harbor International Airport (KPHX) |
Arrival
| Time | 2026-05-07 20:35 |
|---|---|
| Airport | Harry Reid International Airport (KLAS) |
| Time | Latitude | Longitude | Altitude | Speed | Heading |
|---|---|---|---|---|---|
| 2026-05-07 19:28 | 33.43374 | -111.99374 | 1116 ft | 0 kts | 306° |
| 2026-05-07 19:46 | 33.43363 | -111.99355 | 1113 ft | 4 kts | 306° |
| 2026-05-07 19:46 | 33.43349 | -111.99334 | 1113 ft | 4 kts | 301° |
| 2026-05-07 19:47 | 33.43344 | -111.99314 | 1118 ft | 4 kts | 219° |
| 2026-05-07 19:47 | 33.43366 | -111.99307 | 1115 ft | 4 kts | 182° |
| 2026-05-07 19:47 | 33.43391 | -111.99306 | 1119 ft | 2 kts | 182° |
| 2026-05-07 19:47 | 33.43392 | -111.99306 | 1119 ft | 1 kts | 182° |
| 2026-05-07 19:50 | 33.43361 | -111.99306 | 1119 ft | 6 kts | 180° |
| 2026-05-07 19:50 | 33.43321 | -111.99306 | 1116 ft | 6 kts | 179° |
| 2026-05-07 19:50 | 33.43286 | -111.99278 | 1119 ft | 8 kts | 121° |
| 2026-05-07 19:51 | 33.43237 | -111.99246 | 1120 ft | 9 kts | 183° |
| 2026-05-07 19:51 | 33.43189 | -111.99287 | 1119 ft | 8 kts | 225° |
| 2026-05-07 19:51 | 33.43147 | -111.99334 | 1133 ft | 8 kts | 220° |
| 2026-05-07 19:51 | 33.43107 | -111.99381 | 1133 ft | 8 kts | 243° |
| 2026-05-07 19:52 | 33.43104 | -111.99483 | 1131 ft | 32 kts | 270° |
| 2026-05-07 19:52 | 33.43105 | -112.00066 | 1131 ft | 107 kts | 270° |
| 2026-05-07 19:52 | 33.43106 | -112.01222 | 1145 ft | 167 kts | 269° |
| 2026-05-07 19:52 | 33.43095 | -112.02651 | 1861 ft | 173 kts | 269° |
| 2026-05-07 19:53 | 33.43087 | -112.04113 | 2562 ft | 183 kts | 270° |
| 2026-05-07 19:53 | 33.43109 | -112.05738 | 2779 ft | 208 kts | 271° |
| 2026-05-07 19:53 | 33.43161 | -112.07459 | 3417 ft | 207 kts | 279° |
| 2026-05-07 19:53 | 33.43822 | -112.09068 | 3529 ft | 229 kts | 317° |
| 2026-05-07 19:54 | 33.45199 | -112.10076 | 3875 ft | 237 kts | 334° |
| 2026-05-07 19:54 | 33.46722 | -112.10954 | 4197 ft | 249 kts | 336° |
| 2026-05-07 19:54 | 33.48370 | -112.11828 | 4416 ft | 273 kts | 337° |
| 2026-05-07 19:54 | 33.50129 | -112.12768 | 5041 ft | 275 kts | 336° |
| 2026-05-07 19:55 | 33.51864 | -112.13732 | 5737 ft | 279 kts | 335° |
| 2026-05-07 19:55 | 33.53610 | -112.14784 | 6463 ft | 279 kts | 333° |
| 2026-05-07 19:55 | 33.55323 | -112.15871 | 7285 ft | 278 kts | 333° |
| 2026-05-07 19:55 | 33.57019 | -112.16970 | 7991 ft | 283 kts | 333° |
| 2026-05-07 19:56 | 33.58726 | -112.18088 | 8965 ft | 276 kts | 334° |
| 2026-05-07 19:56 | 33.60421 | -112.19208 | 9765 ft | 281 kts | 330° |
| 2026-05-07 19:56 | 33.62068 | -112.20529 | 10336 ft | 292 kts | 327° |
| 2026-05-07 19:56 | 33.63812 | -112.22005 | 10558 ft | 318 kts | 327° |
| 2026-05-07 19:57 | 33.65673 | -112.23597 | 10819 ft | 337 kts | 327° |
| 2026-05-07 19:57 | 33.67607 | -112.25250 | 11368 ft | 345 kts | 327° |
| 2026-05-07 19:57 | 33.69552 | -112.26905 | 12067 ft | 348 kts | 326° |
| 2026-05-07 19:57 | 33.71566 | -112.28611 | 12832 ft | 351 kts | 327° |
| 2026-05-07 19:58 | 33.73581 | -112.30311 | 13556 ft | 356 kts | 327° |
| 2026-05-07 19:58 | 33.75619 | -112.32025 | 14206 ft | 359 kts | 328° |
| 2026-05-07 19:58 | 33.77680 | -112.33755 | 14922 ft | 363 kts | 328° |
| 2026-05-07 19:58 | 33.79763 | -112.35501 | 15611 ft | 367 kts | 328° |
| 2026-05-07 19:59 | 33.81844 | -112.37246 | 16305 ft | 371 kts | 328° |
| 2026-05-07 19:59 | 33.83971 | -112.39030 | 17019 ft | 375 kts | 329° |
| 2026-05-07 19:59 | 33.86122 | -112.40835 | 17693 ft | 380 kts | 329° |
| 2026-05-07 19:59 | 33.88299 | -112.42663 | 18324 ft | 384 kts | 329° |
| 2026-05-07 20:00 | 33.90498 | -112.44510 | 18932 ft | 387 kts | 330° |
| 2026-05-07 20:00 | 33.92722 | -112.46370 | 19492 ft | 392 kts | 329° |
| 2026-05-07 20:00 | 33.94981 | -112.48266 | 19977 ft | 398 kts | 329° |
| 2026-05-07 20:00 | 33.97260 | -112.50189 | 20599 ft | 401 kts | 330° |
| 2026-05-07 20:01 | 33.99545 | -112.52118 | 21259 ft | 401 kts | 329° |
| 2026-05-07 20:01 | 34.01847 | -112.54063 | 21794 ft | 406 kts | 329° |
| 2026-05-07 20:01 | 34.04174 | -112.56027 | 22338 ft | 410 kts | 329° |
| 2026-05-07 20:01 | 34.06516 | -112.58004 | 22909 ft | 413 kts | 329° |
| 2026-05-07 20:02 | 34.08888 | -112.60003 | 23428 ft | 417 kts | 330° |
| 2026-05-07 20:02 | 34.11264 | -112.61990 | 24055 ft | 413 kts | 330° |
| 2026-05-07 20:02 | 34.13614 | -112.63976 | 24699 ft | 411 kts | 329° |
| 2026-05-07 20:02 | 34.15953 | -112.65973 | 25245 ft | 412 kts | 329° |
| 2026-05-07 20:03 | 34.18271 | -112.67947 | 25772 ft | 413 kts | 329° |
| 2026-05-07 20:03 | 34.20616 | -112.69938 | 26396 ft | 410 kts | 329° |
| 2026-05-07 20:03 | 34.22932 | -112.71910 | 27181 ft | 404 kts | 330° |
| 2026-05-07 20:03 | 34.25230 | -112.73862 | 27737 ft | 405 kts | 330° |
| 2026-05-07 20:04 | 34.27545 | -112.75827 | 27931 ft | 405 kts | 330° |
| 2026-05-07 20:04 | 34.29846 | -112.77782 | 27941 ft | 404 kts | 330° |
| 2026-05-07 20:04 | 34.32147 | -112.79738 | 27936 ft | 403 kts | 329° |
| 2026-05-07 20:04 | 34.34437 | -112.81687 | 27949 ft | 401 kts | 329° |
| 2026-05-07 20:05 | 34.36720 | -112.83632 | 27937 ft | 401 kts | 329° |
| 2026-05-07 20:05 | 34.38993 | -112.85569 | 27931 ft | 400 kts | 329° |
| 2026-05-07 20:05 | 34.41270 | -112.87510 | 27955 ft | 399 kts | 329° |
| 2026-05-07 20:05 | 34.43541 | -112.89448 | 27950 ft | 400 kts | 329° |
| 2026-05-07 20:06 | 34.45814 | -112.91389 | 27964 ft | 400 kts | 329° |
| 2026-05-07 20:06 | 34.48097 | -112.93338 | 27942 ft | 401 kts | 329° |
| 2026-05-07 20:06 | 34.50377 | -112.95288 | 27941 ft | 401 kts | 329° |
| 2026-05-07 20:06 | 34.52661 | -112.97239 | 27965 ft | 401 kts | 329° |
| 2026-05-07 20:07 | 34.54948 | -112.99173 | 27950 ft | 401 kts | 329° |
| 2026-05-07 20:07 | 34.57224 | -113.01128 | 27946 ft | 401 kts | 329° |
| 2026-05-07 20:07 | 34.59496 | -113.03088 | 27953 ft | 400 kts | 329° |
| 2026-05-07 20:07 | 34.61764 | -113.05043 | 27947 ft | 400 kts | 329° |
| 2026-05-07 20:08 | 34.64036 | -113.06997 | 27941 ft | 400 kts | 329° |
| 2026-05-07 20:08 | 34.66278 | -113.08924 | 27953 ft | 399 kts | 329° |
| 2026-05-07 20:08 | 34.68545 | -113.10874 | 27945 ft | 398 kts | 328° |
| 2026-05-07 20:08 | 34.70806 | -113.12819 | 27951 ft | 398 kts | 328° |
| 2026-05-07 20:09 | 34.73067 | -113.14767 | 27939 ft | 398 kts | 328° |
| 2026-05-07 20:09 | 34.75326 | -113.16713 | 27938 ft | 397 kts | 328° |
| 2026-05-07 20:09 | 34.77586 | -113.18662 | 27956 ft | 397 kts | 328° |
| 2026-05-07 20:10 | 34.82066 | -113.22533 | 27955 ft | 397 kts | 328° |
| 2026-05-07 20:10 | 34.84321 | -113.24477 | 27948 ft | 397 kts | 328° |
| 2026-05-07 20:10 | 34.86583 | -113.26430 | 27945 ft | 397 kts | 328° |
| 2026-05-07 20:10 | 34.88831 | -113.28380 | 27947 ft | 397 kts | 328° |
| 2026-05-07 20:11 | 34.91086 | -113.30334 | 27942 ft | 397 kts | 328° |
| 2026-05-07 20:11 | 34.93332 | -113.32278 | 27923 ft | 396 kts | 328° |
| 2026-05-07 20:11 | 34.95574 | -113.34222 | 27955 ft | 396 kts | 328° |
| 2026-05-07 20:11 | 34.97817 | -113.36169 | 27950 ft | 396 kts | 328° |
| 2026-05-07 20:12 | 34.99547 | -113.37695 | 27938 ft | 397 kts | 326° |
| 2026-05-07 20:12 | 35.01613 | -113.39686 | 27939 ft | 398 kts | 325° |
| 2026-05-07 20:12 | 35.03756 | -113.41829 | 27933 ft | 398 kts | 324° |
| 2026-05-07 20:12 | 35.05855 | -113.43960 | 27929 ft | 398 kts | 324° |
| 2026-05-07 20:13 | 35.07976 | -113.46125 | 27944 ft | 398 kts | 324° |
| 2026-05-07 20:13 | 35.10098 | -113.48293 | 27947 ft | 398 kts | 324° |
| 2026-05-07 20:13 | 35.12216 | -113.50449 | 27913 ft | 392 kts | 324° |
| 2026-05-07 20:13 | 35.14297 | -113.52560 | 27653 ft | 386 kts | 324° |
| 2026-05-07 20:14 | 35.16344 | -113.54638 | 27370 ft | 380 kts | 324° |
| 2026-05-07 20:14 | 35.18373 | -113.56690 | 27009 ft | 376 kts | 324° |
| 2026-05-07 20:14 | 35.20384 | -113.58721 | 26605 ft | 373 kts | 324° |
| 2026-05-07 20:14 | 35.22379 | -113.60736 | 26222 ft | 371 kts | 324° |
| 2026-05-07 20:15 | 35.24363 | -113.62742 | 25833 ft | 368 kts | 324° |
| 2026-05-07 20:15 | 35.26335 | -113.64738 | 25452 ft | 366 kts | 324° |
| 2026-05-07 20:15 | 35.28291 | -113.66719 | 25071 ft | 364 kts | 324° |
| 2026-05-07 20:15 | 35.30241 | -113.68695 | 24690 ft | 363 kts | 324° |
| 2026-05-07 20:16 | 35.32158 | -113.70639 | 24303 ft | 362 kts | 323° |
| 2026-05-07 20:16 | 35.34094 | -113.72604 | 23900 ft | 361 kts | 323° |
| 2026-05-07 20:16 | 35.36025 | -113.74565 | 23493 ft | 361 kts | 323° |
| 2026-05-07 20:16 | 35.37954 | -113.76526 | 23050 ft | 359 kts | 323° |
| 2026-05-07 20:17 | 35.39872 | -113.78477 | 22633 ft | 357 kts | 323° |
| 2026-05-07 20:17 | 35.41779 | -113.80419 | 22232 ft | 355 kts | 323° |
| 2026-05-07 20:17 | 35.43670 | -113.82345 | 21838 ft | 352 kts | 323° |
| 2026-05-07 20:17 | 35.45554 | -113.84265 | 21450 ft | 350 kts | 323° |
| 2026-05-07 20:18 | 35.47418 | -113.86166 | 21068 ft | 348 kts | 323° |
| 2026-05-07 20:18 | 35.49274 | -113.88060 | 20677 ft | 346 kts | 323° |
| 2026-05-07 20:18 | 35.51116 | -113.89940 | 20292 ft | 343 kts | 323° |
| 2026-05-07 20:18 | 35.52946 | -113.91811 | 19922 ft | 342 kts | 323° |
| 2026-05-07 20:19 | 35.54770 | -113.93674 | 19550 ft | 340 kts | 323° |
| 2026-05-07 20:19 | 35.55974 | -113.94905 | 19298 ft | 339 kts | 323° |
| 2026-05-07 20:19 | 35.57780 | -113.96754 | 18917 ft | 338 kts | 323° |
| 2026-05-07 20:19 | 35.59584 | -113.98601 | 18528 ft | 337 kts | 323° |
| 2026-05-07 20:20 | 35.61967 | -114.01043 | 18011 ft | 336 kts | 322° |
| 2026-05-07 20:20 | 35.63758 | -114.02878 | 17607 ft | 334 kts | 323° |
| 2026-05-07 20:20 | 35.64943 | -114.04094 | 17349 ft | 333 kts | 322° |
| 2026-05-07 20:20 | 35.66720 | -114.05919 | 16974 ft | 331 kts | 322° |
| 2026-05-07 20:21 | 35.68485 | -114.07732 | 16585 ft | 330 kts | 322° |
| 2026-05-07 20:21 | 35.70245 | -114.09540 | 16212 ft | 328 kts | 322° |
| 2026-05-07 20:21 | 35.71993 | -114.11338 | 15850 ft | 326 kts | 322° |
| 2026-05-07 20:21 | 35.73720 | -114.13115 | 15673 ft | 319 kts | 322° |
| 2026-05-07 20:22 | 35.75388 | -114.14855 | 15519 ft | 311 kts | 319° |
| 2026-05-07 20:22 | 35.76693 | -114.16975 | 15210 ft | 313 kts | 301° |
| 2026-05-07 20:22 | 35.77707 | -114.19337 | 14904 ft | 312 kts | 300° |
| 2026-05-07 20:22 | 35.78718 | -114.21702 | 14584 ft | 311 kts | 301° |
| 2026-05-07 20:23 | 35.79737 | -114.24062 | 14254 ft | 311 kts | 301° |
| 2026-05-07 20:23 | 35.80759 | -114.26401 | 13934 ft | 310 kts | 301° |
| 2026-05-07 20:23 | 35.81784 | -114.28734 | 13588 ft | 310 kts | 300° |
| 2026-05-07 20:23 | 35.82670 | -114.30748 | 13293 ft | 309 kts | 300° |
| 2026-05-07 20:24 | 35.83695 | -114.33070 | 12946 ft | 308 kts | 301° |
| 2026-05-07 20:24 | 35.84851 | -114.35267 | 12636 ft | 303 kts | 309° |
| 2026-05-07 20:24 | 35.86143 | -114.37310 | 12315 ft | 301 kts | 311° |
| 2026-05-07 20:24 | 35.87452 | -114.39320 | 11994 ft | 300 kts | 310° |
| 2026-05-07 20:25 | 35.88734 | -114.41304 | 11686 ft | 299 kts | 310° |
| 2026-05-07 20:25 | 35.90013 | -114.43311 | 11384 ft | 297 kts | 310° |
| 2026-05-07 20:25 | 35.91281 | -114.45323 | 11078 ft | 296 kts | 309° |
| 2026-05-07 20:25 | 35.92538 | -114.47331 | 10774 ft | 295 kts | 309° |
| 2026-05-07 20:26 | 35.93786 | -114.49338 | 10470 ft | 294 kts | 308° |
| 2026-05-07 20:26 | 35.95022 | -114.51344 | 10158 ft | 293 kts | 309° |
| 2026-05-07 20:26 | 35.96256 | -114.53328 | 9958 ft | 288 kts | 309° |
| 2026-05-07 20:26 | 35.97461 | -114.55265 | 9864 ft | 279 kts | 309° |
| 2026-05-07 20:27 | 35.98647 | -114.57183 | 9407 ft | 284 kts | 309° |
| 2026-05-07 20:27 | 35.99838 | -114.59116 | 9052 ft | 282 kts | 309° |
| 2026-05-07 20:27 | 36.01004 | -114.61017 | 8712 ft | 273 kts | 308° |
| 2026-05-07 20:27 | 36.02131 | -114.62854 | 8525 ft | 262 kts | 308° |
| 2026-05-07 20:28 | 36.03202 | -114.64631 | 8391 ft | 255 kts | 307° |
| 2026-05-07 20:28 | 36.04257 | -114.66386 | 8287 ft | 255 kts | 305° |
| 2026-05-07 20:28 | 36.05175 | -114.68220 | 8201 ft | 251 kts | 302° |
| 2026-05-07 20:28 | 36.06052 | -114.70057 | 8093 ft | 245 kts | 302° |
| 2026-05-07 20:29 | 36.06911 | -114.71853 | 7982 ft | 240 kts | 300° |
| 2026-05-07 20:29 | 36.07357 | -114.73823 | 7727 ft | 243 kts | 272° |
| 2026-05-07 20:29 | 36.07351 | -114.75903 | 7494 ft | 242 kts | 271° |
| 2026-05-07 20:29 | 36.07349 | -114.77990 | 7208 ft | 244 kts | 271° |
| 2026-05-07 20:30 | 36.07347 | -114.80094 | 6927 ft | 246 kts | 271° |
| 2026-05-07 20:30 | 36.07352 | -114.82222 | 6612 ft | 250 kts | 272° |
| 2026-05-07 20:30 | 36.07355 | -114.84374 | 6282 ft | 249 kts | 271° |
| 2026-05-07 20:30 | 36.07354 | -114.86495 | 5977 ft | 243 kts | 271° |
| 2026-05-07 20:31 | 36.07356 | -114.88547 | 5684 ft | 233 kts | 271° |
| 2026-05-07 20:31 | 36.07359 | -114.90507 | 5393 ft | 223 kts | 271° |
| 2026-05-07 20:31 | 36.07362 | -114.92387 | 5117 ft | 213 kts | 271° |
| 2026-05-07 20:31 | 36.07364 | -114.94162 | 4848 ft | 205 kts | 270° |
| 2026-05-07 20:32 | 36.07365 | -114.95912 | 4574 ft | 197 kts | 271° |
| 2026-05-07 20:32 | 36.07368 | -114.97557 | 4353 ft | 190 kts | 271° |
| 2026-05-07 20:32 | 36.07383 | -114.99145 | 4151 ft | 178 kts | 271° |
| 2026-05-07 20:32 | 36.07385 | -115.00604 | 3944 ft | 163 kts | 271° |
| 2026-05-07 20:33 | 36.07383 | -115.01957 | 3772 ft | 159 kts | 270° |
| 2026-05-07 20:33 | 36.07380 | -115.03311 | 3566 ft | 155 kts | 270° |
| 2026-05-07 20:33 | 36.07376 | -115.04642 | 3363 ft | 154 kts | 269° |
| 2026-05-07 20:33 | 36.07362 | -115.05970 | 3121 ft | 155 kts | 270° |
| 2026-05-07 20:34 | 36.07368 | -115.07265 | 2910 ft | 148 kts | 271° |
| 2026-05-07 20:34 | 36.07372 | -115.08542 | 2743 ft | 149 kts | 269° |
| 2026-05-07 20:34 | 36.07369 | -115.09825 | 2553 ft | 150 kts | 269° |
| 2026-05-07 20:34 | 36.07374 | -115.11094 | 2319 ft | 145 kts | 267° |
| 2026-05-07 20:35 | 36.07372 | -115.12362 | 2150 ft | 148 kts | 267° |
| 2026-05-07 20:35 | 36.07368 | -115.13576 | 2073 ft | 125 kts | 270° |
| 2026-05-07 20:35 | 36.07366 | -115.14371 | 2089 ft | 53 kts | 269° |
| 2026-05-07 20:35 | 36.07369 | -115.14692 | 2091 ft | 25 kts | 273° |
| 2026-05-07 20:36 | 36.07404 | -115.14889 | 2095 ft | 23 kts | 294° |
| 2026-05-07 20:36 | 36.07478 | -115.15061 | 2098 ft | 22 kts | 305° |
| 2026-05-07 20:36 | 36.07539 | -115.15135 | 2102 ft | 6 kts | 324° |
| 2026-05-07 20:36 | 36.07574 | -115.15159 | 2106 ft | 6 kts | 333° |
| 2026-05-07 20:37 | 36.07626 | -115.15189 | 2109 ft | 9 kts | 335° |
| 2026-05-07 20:37 | 36.07682 | -115.15221 | 2109 ft | 9 kts | 333° |
| 2026-05-07 20:37 | 36.07751 | -115.15261 | 2104 ft | 13 kts | 343° |
| 2026-05-07 20:37 | 36.07841 | -115.15213 | 2099 ft | 15 kts | 26° |
| 2026-05-07 20:38 | 36.07944 | -115.15203 | 2097 ft | 15 kts | 359° |
| 2026-05-07 20:38 | 36.08045 | -115.15200 | 2097 ft | 14 kts | 13° |
| 2026-05-07 20:38 | 36.08112 | -115.15121 | 2096 ft | 14 kts | 54° |
| 2026-05-07 20:38 | 36.08171 | -115.15039 | 2096 ft | 12 kts | 45° |
| 2026-05-07 20:39 | 36.08220 | -115.14970 | 2096 ft | 10 kts | 55° |
| 2026-05-07 20:39 | 36.08256 | -115.14909 | 2096 ft | 6 kts | 54° |
| 2026-05-07 20:39 | 36.08272 | -115.14880 | 2096 ft | 0 kts | 55° |